sensor_id;sensor_type;location;lat;lon;timestamp;P1;durP1;ratioP1;P2;durP2;ratioP2
44486;SDS011;30191;50.908;6.962;2023-12-14T00:01:51;17.58;;;14.32;;
44486;SDS011;30191;50.908;6.962;2023-12-14T00:04:16;21.35;;;15.57;;
44486;SDS011;30191;50.908;6.962;2023-12-14T00:06:42;23.20;;;16.60;;
44486;SDS011;30191;50.908;6.962;2023-12-14T00:09:08;24.13;;;16.33;;
44486;SDS011;30191;50.908;6.962;2023-12-14T00:11:42;23.90;;;17.25;;
44486;SDS011;30191;50.908;6.962;2023-12-14T00:14:08;25.33;;;17.17;;
44486;SDS011;30191;50.908;6.962;2023-12-14T00:16:33;25.08;;;16.90;;
44486;SDS011;30191;50.908;6.962;2023-12-14T00:18:59;23.70;;;16.95;;
44486;SDS011;30191;50.908;6.962;2023-12-14T00:21:25;25.15;;;18.25;;
44486;SDS011;30191;50.908;6.962;2023-12-14T00:23:50;25.02;;;18.33;;
44486;SDS011;30191;50.908;6.962;2023-12-14T00:26:16;27.13;;;18.35;;
44486;SDS011;30191;50.908;6.962;2023-12-14T00:28:42;24.83;;;18.98;;
44486;SDS011;30191;50.908;6.962;2023-12-14T00:31:08;28.45;;;18.48;;
44486;SDS011;30191;50.908;6.962;2023-12-14T00:33:34;27.85;;;18.52;;
44486;SDS011;30191;50.908;6.962;2023-12-14T00:35:59;29.50;;;20.33;;
44486;SDS011;30191;50.908;6.962;2023-12-14T00:38:25;36.42;;;22.55;;
44486;SDS011;30191;50.908;6.962;2023-12-14T00:40:50;41.83;;;24.35;;
44486;SDS011;30191;50.908;6.962;2023-12-14T00:43:16;38.40;;;24.75;;
44486;SDS011;30191;50.908;6.962;2023-12-14T00:45:42;46.33;;;27.48;;
44486;SDS011;30191;50.908;6.962;2023-12-14T00:48:07;49.60;;;27.45;;
44486;SDS011;30191;50.908;6.962;2023-12-14T00:50:33;44.65;;;27.23;;
44486;SDS011;30191;50.908;6.962;2023-12-14T00:52:59;46.28;;;27.67;;
44486;SDS011;30191;50.908;6.962;2023-12-14T00:55:24;50.35;;;26.40;;
44486;SDS011;30191;50.908;6.962;2023-12-14T00:57:50;52.42;;;28.48;;
44486;SDS011;30191;50.908;6.962;2023-12-14T01:00:16;47.70;;;27.33;;
44486;SDS011;30191;50.908;6.962;2023-12-14T01:02:42;49.75;;;27.17;;
44486;SDS011;30191;50.908;6.962;2023-12-14T01:05:07;45.22;;;27.48;;
44486;SDS011;30191;50.908;6.962;2023-12-14T01:07:33;51.97;;;28.83;;
44486;SDS011;30191;50.908;6.962;2023-12-14T01:09:59;49.13;;;26.63;;
44486;SDS011;30191;50.908;6.962;2023-12-14T01:12:24;46.08;;;27.08;;
44486;SDS011;30191;50.908;6.962;2023-12-14T01:14:50;49.13;;;27.98;;
44486;SDS011;30191;50.908;6.962;2023-12-14T01:17:16;48.33;;;27.65;;
44486;SDS011;30191;50.908;6.962;2023-12-14T01:19:41;56.00;;;28.73;;
44486;SDS011;30191;50.908;6.962;2023-12-14T01:22:07;50.03;;;27.42;;
44486;SDS011;30191;50.908;6.962;2023-12-14T01:24:33;47.60;;;26.50;;
44486;SDS011;30191;50.908;6.962;2023-12-14T01:26:58;44.55;;;27.20;;
44486;SDS011;30191;50.908;6.962;2023-12-14T01:29:24;47.53;;;26.77;;
44486;SDS011;30191;50.908;6.962;2023-12-14T01:31:49;45.75;;;25.77;;
44486;SDS011;30191;50.908;6.962;2023-12-14T01:34:15;46.65;;;26.02;;
44486;SDS011;30191;50.908;6.962;2023-12-14T01:36:41;49.08;;;27.65;;
44486;SDS011;30191;50.908;6.962;2023-12-14T01:39:07;46.75;;;27.67;;
44486;SDS011;30191;50.908;6.962;2023-12-14T01:41:33;44.97;;;27.33;;
44486;SDS011;30191;50.908;6.962;2023-12-14T01:43:58;44.33;;;28.15;;
44486;SDS011;30191;50.908;6.962;2023-12-14T01:46:24;44.75;;;27.00;;
44486;SDS011;30191;50.908;6.962;2023-12-14T01:48:50;45.30;;;27.60;;
44486;SDS011;30191;50.908;6.962;2023-12-14T01:51:18;49.38;;;28.75;;
44486;SDS011;30191;50.908;6.962;2023-12-14T01:53:43;48.17;;;28.25;;
44486;SDS011;30191;50.908;6.962;2023-12-14T01:56:09;51.25;;;29.23;;
44486;SDS011;30191;50.908;6.962;2023-12-14T01:58:35;52.25;;;29.40;;
44486;SDS011;30191;50.908;6.962;2023-12-14T02:03:30;50.70;;;30.52;;
44486;SDS011;30191;50.908;6.962;2023-12-14T02:05:55;53.28;;;31.67;;
44486;SDS011;30191;50.908;6.962;2023-12-14T02:08:23;54.30;;;30.33;;
44486;SDS011;30191;50.908;6.962;2023-12-14T02:10:49;49.50;;;29.85;;
44486;SDS011;30191;50.908;6.962;2023-12-14T02:13:15;49.95;;;29.10;;
44486;SDS011;30191;50.908;6.962;2023-12-14T02:15:41;50.10;;;29.42;;
44486;SDS011;30191;50.908;6.962;2023-12-14T02:18:07;54.20;;;30.38;;
44486;SDS011;30191;50.908;6.962;2023-12-14T02:20:33;51.88;;;29.88;;
44486;SDS011;30191;50.908;6.962;2023-12-14T02:22:59;48.42;;;29.08;;
44486;SDS011;30191;50.908;6.962;2023-12-14T02:25:26;42.92;;;27.10;;
44486;SDS011;30191;50.908;6.962;2023-12-14T02:27:52;43.13;;;27.98;;
44486;SDS011;30191;50.908;6.962;2023-12-14T02:30:18;47.47;;;28.20;;
44486;SDS011;30191;50.908;6.962;2023-12-14T02:32:44;41.55;;;26.48;;
44486;SDS011;30191;50.908;6.962;2023-12-14T02:35:10;39.83;;;25.52;;
44486;SDS011;30191;50.908;6.962;2023-12-14T02:37:36;41.33;;;26.75;;
44486;SDS011;30191;50.908;6.962;2023-12-14T02:40:07;44.45;;;26.63;;
44486;SDS011;30191;50.908;6.962;2023-12-14T02:42:34;40.67;;;26.45;;
44486;SDS011;30191;50.908;6.962;2023-12-14T02:45:01;41.58;;;26.25;;
44486;SDS011;30191;50.908;6.962;2023-12-14T02:47:27;44.63;;;27.67;;
44486;SDS011;30191;50.908;6.962;2023-12-14T02:49:54;45.38;;;27.90;;
44486;SDS011;30191;50.908;6.962;2023-12-14T02:52:20;45.45;;;28.45;;
44486;SDS011;30191;50.908;6.962;2023-12-14T02:54:45;47.17;;;29.27;;
44486;SDS011;30191;50.908;6.962;2023-12-14T02:57:11;41.45;;;26.10;;
44486;SDS011;30191;50.908;6.962;2023-12-14T02:59:37;40.17;;;24.63;;
44486;SDS011;30191;50.908;6.962;2023-12-14T03:02:02;38.60;;;25.10;;
44486;SDS011;30191;50.908;6.962;2023-12-14T03:04:28;36.78;;;23.60;;
44486;SDS011;30191;50.908;6.962;2023-12-14T03:06:54;35.05;;;23.48;;
44486;SDS011;30191;50.908;6.962;2023-12-14T03:09:21;32.33;;;21.98;;
44486;SDS011;30191;50.908;6.962;2023-12-14T03:11:47;30.30;;;21.17;;
44486;SDS011;30191;50.908;6.962;2023-12-14T03:14:13;30.52;;;20.95;;
44486;SDS011;30191;50.908;6.962;2023-12-14T03:16:39;30.90;;;20.60;;
44486;SDS011;30191;50.908;6.962;2023-12-14T03:19:05;33.30;;;21.50;;
44486;SDS011;30191;50.908;6.962;2023-12-14T03:21:30;31.50;;;21.70;;
44486;SDS011;30191;50.908;6.962;2023-12-14T03:23:56;34.30;;;22.15;;
44486;SDS011;30191;50.908;6.962;2023-12-14T03:26:22;37.78;;;22.80;;
44486;SDS011;30191;50.908;6.962;2023-12-14T03:28:47;36.40;;;22.38;;
44486;SDS011;30191;50.908;6.962;2023-12-14T03:31:13;37.45;;;23.55;;
44486;SDS011;30191;50.908;6.962;2023-12-14T03:33:39;33.42;;;22.80;;
44486;SDS011;30191;50.908;6.962;2023-12-14T03:36:05;37.35;;;24.20;;
44486;SDS011;30191;50.908;6.962;2023-12-14T03:38:32;40.05;;;24.58;;
44486;SDS011;30191;50.908;6.962;2023-12-14T03:40:58;37.47;;;24.00;;
44486;SDS011;30191;50.908;6.962;2023-12-14T03:43:24;42.63;;;25.50;;
44486;SDS011;30191;50.908;6.962;2023-12-14T03:45:50;41.70;;;24.50;;
44486;SDS011;30191;50.908;6.962;2023-12-14T03:48:15;35.95;;;24.27;;
44486;SDS011;30191;50.908;6.962;2023-12-14T03:50:41;38.90;;;24.50;;
44486;SDS011;30191;50.908;6.962;2023-12-14T03:53:07;39.00;;;23.42;;
44486;SDS011;30191;50.908;6.962;2023-12-14T03:55:33;40.38;;;24.42;;
44486;SDS011;30191;50.908;6.962;2023-12-14T03:57:59;38.55;;;24.02;;
44486;SDS011;30191;50.908;6.962;2023-12-14T04:00:24;34.97;;;23.17;;
44486;SDS011;30191;50.908;6.962;2023-12-14T04:02:50;32.15;;;22.02;;
44486;SDS011;30191;50.908;6.962;2023-12-14T04:05:16;33.60;;;22.92;;
44486;SDS011;30191;50.908;6.962;2023-12-14T04:07:42;32.95;;;22.58;;
44486;SDS011;30191;50.908;6.962;2023-12-14T04:10:08;31.38;;;22.02;;
44486;SDS011;30191;50.908;6.962;2023-12-14T04:12:35;31.17;;;21.15;;
44486;SDS011;30191;50.908;6.962;2023-12-14T04:15:01;28.38;;;21.35;;
44486;SDS011;30191;50.908;6.962;2023-12-14T04:17:27;28.88;;;20.35;;
44486;SDS011;30191;50.908;6.962;2023-12-14T04:19:53;25.73;;;19.75;;
44486;SDS011;30191;50.908;6.962;2023-12-14T04:22:19;25.17;;;19.40;;
44486;SDS011;30191;50.908;6.962;2023-12-14T04:24:44;25.73;;;18.52;;
44486;SDS011;30191;50.908;6.962;2023-12-14T04:27:10;24.67;;;17.63;;
44486;SDS011;30191;50.908;6.962;2023-12-14T04:29:36;25.17;;;18.08;;
44486;SDS011;30191;50.908;6.962;2023-12-14T04:32:01;24.48;;;18.65;;
44486;SDS011;30191;50.908;6.962;2023-12-14T04:34:27;23.83;;;19.42;;
44486;SDS011;30191;50.908;6.962;2023-12-14T04:36:53;21.15;;;17.63;;
44486;SDS011;30191;50.908;6.962;2023-12-14T04:39:22;24.33;;;19.08;;
44486;SDS011;30191;50.908;6.962;2023-12-14T04:41:51;28.23;;;19.98;;
44486;SDS011;30191;50.908;6.962;2023-12-14T04:44:18;25.30;;;19.70;;
44486;SDS011;30191;50.908;6.962;2023-12-14T04:46:44;29.17;;;21.05;;
44486;SDS011;30191;50.908;6.962;2023-12-14T04:49:09;28.88;;;21.08;;
44486;SDS011;30191;50.908;6.962;2023-12-14T04:51:35;27.83;;;20.05;;
44486;SDS011;30191;50.908;6.962;2023-12-14T04:54:01;32.95;;;21.40;;
44486;SDS011;30191;50.908;6.962;2023-12-14T04:56:27;30.77;;;20.45;;
44486;SDS011;30191;50.908;6.962;2023-12-14T04:58:53;31.45;;;22.13;;
44486;SDS011;30191;50.908;6.962;2023-12-14T05:01:19;30.90;;;21.98;;
44486;SDS011;30191;50.908;6.962;2023-12-14T05:03:44;29.52;;;22.05;;
44486;SDS011;30191;50.908;6.962;2023-12-14T05:06:10;31.73;;;22.92;;
44486;SDS011;30191;50.908;6.962;2023-12-14T05:08:36;30.88;;;22.35;;
44486;SDS011;30191;50.908;6.962;2023-12-14T05:11:01;29.60;;;22.27;;
44486;SDS011;30191;50.908;6.962;2023-12-14T05:13:28;34.97;;;22.30;;
44486;SDS011;30191;50.908;6.962;2023-12-14T05:15:54;33.30;;;24.33;;
44486;SDS011;30191;50.908;6.962;2023-12-14T05:18:20;36.40;;;24.67;;
44486;SDS011;30191;50.908;6.962;2023-12-14T05:20:46;41.53;;;27.02;;
44486;SDS011;30191;50.908;6.962;2023-12-14T05:23:12;36.78;;;25.90;;
44486;SDS011;30191;50.908;6.962;2023-12-14T05:25:38;37.78;;;26.35;;
44486;SDS011;30191;50.908;6.962;2023-12-14T05:28:03;43.05;;;26.92;;
44486;SDS011;30191;50.908;6.962;2023-12-14T05:30:29;39.78;;;27.38;;
44486;SDS011;30191;50.908;6.962;2023-12-14T05:32:55;40.45;;;27.58;;
44486;SDS011;30191;50.908;6.962;2023-12-14T05:35:21;47.92;;;29.60;;
44486;SDS011;30191;50.908;6.962;2023-12-14T05:37:46;52.80;;;33.20;;
44486;SDS011;30191;50.908;6.962;2023-12-14T05:40:12;56.20;;;35.25;;
44486;SDS011;30191;50.908;6.962;2023-12-14T05:42:38;61.10;;;35.58;;
44486;SDS011;30191;50.908;6.962;2023-12-14T05:45:04;55.80;;;33.03;;
44486;SDS011;30191;50.908;6.962;2023-12-14T05:47:31;42.40;;;28.15;;
44486;SDS011;30191;50.908;6.962;2023-12-14T05:49:58;39.55;;;26.40;;
44486;SDS011;30191;50.908;6.962;2023-12-14T05:52:24;31.20;;;22.13;;
44486;SDS011;30191;50.908;6.962;2023-12-14T05:54:50;29.55;;;20.25;;
44486;SDS011;30191;50.908;6.962;2023-12-14T05:57:15;28.00;;;19.52;;
44486;SDS011;30191;50.908;6.962;2023-12-14T05:59:41;28.63;;;20.45;;
44486;SDS011;30191;50.908;6.962;2023-12-14T06:02:07;31.10;;;21.70;;
44486;SDS011;30191;50.908;6.962;2023-12-14T06:04:33;29.00;;;20.52;;
44486;SDS011;30191;50.908;6.962;2023-12-14T06:06:59;30.98;;;21.30;;
44486;SDS011;30191;50.908;6.962;2023-12-14T06:09:24;31.23;;;21.33;;
44486;SDS011;30191;50.908;6.962;2023-12-14T06:11:58;32.40;;;21.17;;
44486;SDS011;30191;50.908;6.962;2023-12-14T06:14:28;32.67;;;21.15;;
44486;SDS011;30191;50.908;6.962;2023-12-14T06:16:54;33.72;;;21.20;;
44486;SDS011;30191;50.908;6.962;2023-12-14T06:19:20;34.70;;;22.90;;
44486;SDS011;30191;50.908;6.962;2023-12-14T06:21:45;34.88;;;23.25;;
44486;SDS011;30191;50.908;6.962;2023-12-14T06:24:11;39.95;;;26.42;;
44486;SDS011;30191;50.908;6.962;2023-12-14T06:26:42;39.72;;;22.90;;
44486;SDS011;30191;50.908;6.962;2023-12-14T06:29:09;37.22;;;23.90;;
44486;SDS011;30191;50.908;6.962;2023-12-14T06:31:36;37.53;;;23.25;;
44486;SDS011;30191;50.908;6.962;2023-12-14T06:34:04;37.35;;;24.00;;
44486;SDS011;30191;50.908;6.962;2023-12-14T06:36:30;38.83;;;24.15;;
44486;SDS011;30191;50.908;6.962;2023-12-14T06:38:59;35.55;;;23.75;;
44486;SDS011;30191;50.908;6.962;2023-12-14T06:41:26;38.63;;;24.80;;
44486;SDS011;30191;50.908;6.962;2023-12-14T06:43:53;40.22;;;24.88;;
44486;SDS011;30191;50.908;6.962;2023-12-14T06:46:19;41.10;;;25.98;;
44486;SDS011;30191;50.908;6.962;2023-12-14T06:48:46;42.13;;;25.98;;
44486;SDS011;30191;50.908;6.962;2023-12-14T06:51:12;42.30;;;27.05;;
44486;SDS011;30191;50.908;6.962;2023-12-14T06:53:42;44.08;;;26.75;;
44486;SDS011;30191;50.908;6.962;2023-12-14T06:56:09;46.40;;;27.45;;
44486;SDS011;30191;50.908;6.962;2023-12-14T06:58:36;48.75;;;28.48;;
44486;SDS011;30191;50.908;6.962;2023-12-14T07:01:06;49.80;;;29.70;;
44486;SDS011;30191;50.908;6.962;2023-12-14T07:03:32;54.47;;;30.38;;
44486;SDS011;30191;50.908;6.962;2023-12-14T07:05:58;59.00;;;32.38;;
44486;SDS011;30191;50.908;6.962;2023-12-14T07:08:23;56.50;;;32.10;;
44486;SDS011;30191;50.908;6.962;2023-12-14T07:10:50;60.80;;;33.50;;
44486;SDS011;30191;50.908;6.962;2023-12-14T07:13:15;59.63;;;32.25;;
44486;SDS011;30191;50.908;6.962;2023-12-14T07:15:41;57.22;;;32.95;;
44486;SDS011;30191;50.908;6.962;2023-12-14T07:18:07;56.15;;;32.35;;
44486;SDS011;30191;50.908;6.962;2023-12-14T07:20:33;62.13;;;33.08;;
44486;SDS011;30191;50.908;6.962;2023-12-14T07:22:58;58.85;;;33.15;;
44486;SDS011;30191;50.908;6.962;2023-12-14T07:25:24;58.72;;;33.97;;
44486;SDS011;30191;50.908;6.962;2023-12-14T07:27:50;59.38;;;32.42;;
44486;SDS011;30191;50.908;6.962;2023-12-14T07:30:16;58.00;;;32.30;;
44486;SDS011;30191;50.908;6.962;2023-12-14T07:32:41;58.10;;;33.13;;
44486;SDS011;30191;50.908;6.962;2023-12-14T07:35:07;63.83;;;33.10;;
44486;SDS011;30191;50.908;6.962;2023-12-14T07:37:33;62.70;;;32.42;;
44486;SDS011;30191;50.908;6.962;2023-12-14T07:39:59;61.05;;;32.08;;
44486;SDS011;30191;50.908;6.962;2023-12-14T07:42:25;64.22;;;31.30;;
44486;SDS011;30191;50.908;6.962;2023-12-14T07:44:50;56.97;;;32.45;;
44486;SDS011;30191;50.908;6.962;2023-12-14T07:47:16;58.10;;;30.63;;
44486;SDS011;30191;50.908;6.962;2023-12-14T07:49:42;57.42;;;31.88;;
44486;SDS011;30191;50.908;6.962;2023-12-14T07:52:08;59.47;;;31.08;;
44486;SDS011;30191;50.908;6.962;2023-12-14T07:54:34;55.72;;;29.73;;
44486;SDS011;30191;50.908;6.962;2023-12-14T07:57:00;55.03;;;30.48;;
44486;SDS011;30191;50.908;6.962;2023-12-14T07:59:26;58.63;;;31.50;;
44486;SDS011;30191;50.908;6.962;2023-12-14T08:01:52;53.80;;;28.83;;
44486;SDS011;30191;50.908;6.962;2023-12-14T08:04:18;48.03;;;27.42;;
44486;SDS011;30191;50.908;6.962;2023-12-14T08:06:43;42.85;;;25.83;;
44486;SDS011;30191;50.908;6.962;2023-12-14T08:09:09;40.28;;;23.48;;
44486;SDS011;30191;50.908;6.962;2023-12-14T08:11:35;39.05;;;22.73;;
44486;SDS011;30191;50.908;6.962;2023-12-14T08:14:01;35.47;;;21.58;;
44486;SDS011;30191;50.908;6.962;2023-12-14T08:16:27;30.27;;;19.35;;
44486;SDS011;30191;50.908;6.962;2023-12-14T08:18:53;31.45;;;19.77;;
44486;SDS011;30191;50.908;6.962;2023-12-14T08:21:19;29.55;;;19.20;;
44486;SDS011;30191;50.908;6.962;2023-12-14T08:23:45;31.75;;;18.38;;
44486;SDS011;30191;50.908;6.962;2023-12-14T08:26:10;30.08;;;18.33;;
44486;SDS011;30191;50.908;6.962;2023-12-14T08:28:38;30.52;;;18.80;;
44486;SDS011;30191;50.908;6.962;2023-12-14T08:31:04;28.92;;;17.33;;
44486;SDS011;30191;50.908;6.962;2023-12-14T08:33:30;28.58;;;17.35;;
44486;SDS011;30191;50.908;6.962;2023-12-14T08:35:56;26.15;;;17.65;;
44486;SDS011;30191;50.908;6.962;2023-12-14T08:38:22;25.92;;;17.73;;
44486;SDS011;30191;50.908;6.962;2023-12-14T08:40:48;24.65;;;16.80;;
44486;SDS011;30191;50.908;6.962;2023-12-14T08:43:14;28.25;;;16.80;;
44486;SDS011;30191;50.908;6.962;2023-12-14T08:45:39;25.33;;;17.20;;
44486;SDS011;30191;50.908;6.962;2023-12-14T08:48:05;24.90;;;16.85;;
44486;SDS011;30191;50.908;6.962;2023-12-14T08:50:31;24.25;;;16.02;;
44486;SDS011;30191;50.908;6.962;2023-12-14T08:52:57;22.50;;;15.75;;
44486;SDS011;30191;50.908;6.962;2023-12-14T08:55:26;25.23;;;16.17;;
44486;SDS011;30191;50.908;6.962;2023-12-14T08:57:52;20.83;;;15.43;;
44486;SDS011;30191;50.908;6.962;2023-12-14T09:00:18;26.48;;;16.38;;
44486;SDS011;30191;50.908;6.962;2023-12-14T09:02:45;26.58;;;16.05;;
44486;SDS011;30191;50.908;6.962;2023-12-14T09:05:14;23.88;;;16.45;;
44486;SDS011;30191;50.908;6.962;2023-12-14T09:07:41;23.52;;;16.63;;
44486;SDS011;30191;50.908;6.962;2023-12-14T09:10:07;24.98;;;17.13;;
44486;SDS011;30191;50.908;6.962;2023-12-14T09:12:33;26.17;;;16.67;;
44486;SDS011;30191;50.908;6.962;2023-12-14T09:14:59;28.08;;;17.83;;
44486;SDS011;30191;50.908;6.962;2023-12-14T09:17:25;27.00;;;18.23;;
44486;SDS011;30191;50.908;6.962;2023-12-14T09:19:57;28.33;;;18.08;;
44486;SDS011;30191;50.908;6.962;2023-12-14T09:22:26;27.35;;;18.48;;
44486;SDS011;30191;50.908;6.962;2023-12-14T09:24:52;28.02;;;19.45;;
44486;SDS011;30191;50.908;6.962;2023-12-14T09:27:18;27.77;;;18.40;;
44486;SDS011;30191;50.908;6.962;2023-12-14T09:29:44;30.67;;;18.83;;
44486;SDS011;30191;50.908;6.962;2023-12-14T09:32:09;33.92;;;19.10;;
44486;SDS011;30191;50.908;6.962;2023-12-14T09:34:35;29.60;;;19.90;;
44486;SDS011;30191;50.908;6.962;2023-12-14T09:37:01;31.63;;;21.25;;
44486;SDS011;30191;50.908;6.962;2023-12-14T09:39:27;33.22;;;20.83;;
44486;SDS011;30191;50.908;6.962;2023-12-14T09:42:02;37.17;;;23.23;;
44486;SDS011;30191;50.908;6.962;2023-12-14T09:44:31;37.67;;;22.80;;
44486;SDS011;30191;50.908;6.962;2023-12-14T09:46:57;37.58;;;23.40;;
44486;SDS011;30191;50.908;6.962;2023-12-14T09:49:29;37.10;;;22.75;;
44486;SDS011;30191;50.908;6.962;2023-12-14T09:51:58;37.35;;;23.17;;
44486;SDS011;30191;50.908;6.962;2023-12-14T09:54:25;32.70;;;21.20;;
44486;SDS011;30191;50.908;6.962;2023-12-14T09:56:52;30.20;;;19.73;;
44486;SDS011;30191;50.908;6.962;2023-12-14T09:59:18;32.40;;;20.88;;
44486;SDS011;30191;50.908;6.962;2023-12-14T10:01:45;29.27;;;19.92;;
44486;SDS011;30191;50.908;6.962;2023-12-14T10:04:14;29.55;;;19.50;;
44486;SDS011;30191;50.908;6.962;2023-12-14T10:06:42;27.65;;;19.30;;
44486;SDS011;30191;50.908;6.962;2023-12-14T10:09:09;29.67;;;19.77;;
44486;SDS011;30191;50.908;6.962;2023-12-14T10:11:38;33.88;;;19.67;;
44486;SDS011;30191;50.908;6.962;2023-12-14T10:14:20;30.20;;;20.42;;
44486;SDS011;30191;50.908;6.962;2023-12-14T10:16:52;30.77;;;20.50;;
44486;SDS011;30191;50.908;6.962;2023-12-14T10:19:18;26.75;;;18.45;;
44486;SDS011;30191;50.908;6.962;2023-12-14T10:21:48;25.73;;;18.73;;
44486;SDS011;30191;50.908;6.962;2023-12-14T10:24:15;26.52;;;18.88;;
44486;SDS011;30191;50.908;6.962;2023-12-14T10:26:44;27.25;;;18.95;;
44486;SDS011;30191;50.908;6.962;2023-12-14T10:29:10;25.77;;;18.75;;
44486;SDS011;30191;50.908;6.962;2023-12-14T10:31:36;23.63;;;17.85;;
44486;SDS011;30191;50.908;6.962;2023-12-14T10:34:05;29.10;;;19.40;;
44486;SDS011;30191;50.908;6.962;2023-12-14T10:36:31;28.55;;;19.45;;
44486;SDS011;30191;50.908;6.962;2023-12-14T10:38:58;26.98;;;19.65;;
44486;SDS011;30191;50.908;6.962;2023-12-14T10:41:25;28.52;;;19.30;;
44486;SDS011;30191;50.908;6.962;2023-12-14T10:43:53;26.15;;;18.90;;
44486;SDS011;30191;50.908;6.962;2023-12-14T10:46:20;23.27;;;17.63;;
44486;SDS011;30191;50.908;6.962;2023-12-14T10:48:49;24.67;;;17.48;;
44486;SDS011;30191;50.908;6.962;2023-12-14T10:51:20;26.75;;;19.33;;
44486;SDS011;30191;50.908;6.962;2023-12-14T10:53:47;24.83;;;18.33;;
44486;SDS011;30191;50.908;6.962;2023-12-14T10:56:14;32.53;;;20.52;;
44486;SDS011;30191;50.908;6.962;2023-12-14T10:58:45;29.23;;;20.52;;
44486;SDS011;30191;50.908;6.962;2023-12-14T11:01:19;34.92;;;22.58;;
44486;SDS011;30191;50.908;6.962;2023-12-14T11:03:46;33.83;;;23.20;;
44486;SDS011;30191;50.908;6.962;2023-12-14T11:08:55;35.90;;;24.08;;
44486;SDS011;30191;50.908;6.962;2023-12-14T11:11:27;34.53;;;24.85;;
44486;SDS011;30191;50.908;6.962;2023-12-14T11:13:53;34.33;;;24.10;;
44486;SDS011;30191;50.908;6.962;2023-12-14T11:16:22;36.70;;;23.50;;
44486;SDS011;30191;50.908;6.962;2023-12-14T11:19:06;37.05;;;23.85;;
44486;SDS011;30191;50.908;6.962;2023-12-14T11:21:47;36.47;;;23.23;;
44486;SDS011;30191;50.908;6.962;2023-12-14T11:24:22;32.28;;;22.83;;
44486;SDS011;30191;50.908;6.962;2023-12-14T11:26:50;33.05;;;22.08;;
44486;SDS011;30191;50.908;6.962;2023-12-14T11:29:19;33.92;;;22.90;;
44486;SDS011;30191;50.908;6.962;2023-12-14T11:31:47;33.63;;;22.85;;
44486;SDS011;30191;50.908;6.962;2023-12-14T11:34:14;33.70;;;21.75;;
44486;SDS011;30191;50.908;6.962;2023-12-14T11:36:40;34.75;;;21.58;;
44486;SDS011;30191;50.908;6.962;2023-12-14T11:39:09;27.90;;;21.45;;
44486;SDS011;30191;50.908;6.962;2023-12-14T11:41:36;32.72;;;23.15;;
44486;SDS011;30191;50.908;6.962;2023-12-14T11:44:03;30.85;;;21.73;;
44486;SDS011;30191;50.908;6.962;2023-12-14T11:46:29;31.15;;;21.83;;
44486;SDS011;30191;50.908;6.962;2023-12-14T11:48:56;30.60;;;21.33;;
44486;SDS011;30191;50.908;6.962;2023-12-14T11:51:22;28.02;;;20.92;;
44486;SDS011;30191;50.908;6.962;2023-12-14T11:53:48;28.45;;;21.02;;
44486;SDS011;30191;50.908;6.962;2023-12-14T11:56:17;28.90;;;21.08;;
44486;SDS011;30191;50.908;6.962;2023-12-14T11:58:43;29.42;;;20.90;;
44486;SDS011;30191;50.908;6.962;2023-12-14T12:01:11;26.88;;;19.45;;
44486;SDS011;30191;50.908;6.962;2023-12-14T12:03:41;26.63;;;20.17;;
44486;SDS011;30191;50.908;6.962;2023-12-14T12:06:20;26.05;;;20.15;;
44486;SDS011;30191;50.908;6.962;2023-12-14T12:08:47;26.77;;;20.50;;
44486;SDS011;30191;50.908;6.962;2023-12-14T12:11:23;25.88;;;19.80;;
44486;SDS011;30191;50.908;6.962;2023-12-14T12:13:53;25.52;;;19.58;;
44486;SDS011;30191;50.908;6.962;2023-12-14T12:16:20;27.23;;;19.85;;
44486;SDS011;30191;50.908;6.962;2023-12-14T12:18:46;25.13;;;18.48;;
44486;SDS011;30191;50.908;6.962;2023-12-14T12:21:11;28.48;;;19.42;;
44486;SDS011;30191;50.908;6.962;2023-12-14T12:23:38;27.95;;;19.80;;
44486;SDS011;30191;50.908;6.962;2023-12-14T12:26:04;25.25;;;19.40;;
44486;SDS011;30191;50.908;6.962;2023-12-14T12:28:30;24.13;;;18.45;;
44486;SDS011;30191;50.908;6.962;2023-12-14T12:30:56;25.23;;;19.02;;
44486;SDS011;30191;50.908;6.962;2023-12-14T12:33:22;26.83;;;19.20;;
44486;SDS011;30191;50.908;6.962;2023-12-14T12:35:48;28.35;;;20.02;;
44486;SDS011;30191;50.908;6.962;2023-12-14T12:38:14;27.45;;;20.15;;
44486;SDS011;30191;50.908;6.962;2023-12-14T12:40:41;28.60;;;20.05;;
44486;SDS011;30191;50.908;6.962;2023-12-14T12:43:07;27.38;;;19.70;;
44486;SDS011;30191;50.908;6.962;2023-12-14T12:45:32;24.70;;;18.83;;
44486;SDS011;30191;50.908;6.962;2023-12-14T12:48:00;25.38;;;18.73;;
44486;SDS011;30191;50.908;6.962;2023-12-14T12:50:28;23.58;;;18.20;;
44486;SDS011;30191;50.908;6.962;2023-12-14T12:52:53;20.77;;;17.08;;
44486;SDS011;30191;50.908;6.962;2023-12-14T12:55:19;23.27;;;17.33;;
44486;SDS011;30191;50.908;6.962;2023-12-14T12:57:45;21.75;;;17.10;;
44486;SDS011;30191;50.908;6.962;2023-12-14T13:00:12;24.55;;;16.65;;
44486;SDS011;30191;50.908;6.962;2023-12-14T13:02:41;23.90;;;16.45;;
44486;SDS011;30191;50.908;6.962;2023-12-14T13:05:09;22.65;;;15.85;;
44486;SDS011;30191;50.908;6.962;2023-12-14T13:07:37;22.23;;;15.02;;
44486;SDS011;30191;50.908;6.962;2023-12-14T13:10:03;18.25;;;14.98;;
44486;SDS011;30191;50.908;6.962;2023-12-14T13:12:34;16.58;;;13.60;;
44486;SDS011;30191;50.908;6.962;2023-12-14T13:14:59;16.63;;;13.52;;
44486;SDS011;30191;50.908;6.962;2023-12-14T13:17:25;16.33;;;13.20;;
44486;SDS011;30191;50.908;6.962;2023-12-14T13:19:52;16.63;;;12.57;;
44486;SDS011;30191;50.908;6.962;2023-12-14T13:22:17;15.10;;;12.88;;
44486;SDS011;30191;50.908;6.962;2023-12-14T13:24:44;14.55;;;12.38;;
44486;SDS011;30191;50.908;6.962;2023-12-14T13:27:10;16.13;;;12.85;;
44486;SDS011;30191;50.908;6.962;2023-12-14T13:29:36;16.58;;;13.43;;
44486;SDS011;30191;50.908;6.962;2023-12-14T13:32:02;17.23;;;13.45;;
44486;SDS011;30191;50.908;6.962;2023-12-14T13:34:28;14.88;;;13.27;;
44486;SDS011;30191;50.908;6.962;2023-12-14T13:36:54;15.95;;;13.05;;
44486;SDS011;30191;50.908;6.962;2023-12-14T13:39:20;14.82;;;12.60;;
44486;SDS011;30191;50.908;6.962;2023-12-14T13:41:46;16.08;;;13.52;;
44486;SDS011;30191;50.908;6.962;2023-12-14T13:44:12;15.55;;;13.23;;
44486;SDS011;30191;50.908;6.962;2023-12-14T13:46:38;17.85;;;13.52;;
44486;SDS011;30191;50.908;6.962;2023-12-14T13:49:03;15.30;;;12.70;;
44486;SDS011;30191;50.908;6.962;2023-12-14T13:51:29;20.45;;;14.05;;
44486;SDS011;30191;50.908;6.962;2023-12-14T13:53:55;19.30;;;14.05;;
44486;SDS011;30191;50.908;6.962;2023-12-14T13:56:20;17.48;;;14.13;;
44486;SDS011;30191;50.908;6.962;2023-12-14T13:58:46;17.10;;;14.00;;
44486;SDS011;30191;50.908;6.962;2023-12-14T14:01:12;17.65;;;13.77;;
44486;SDS011;30191;50.908;6.962;2023-12-14T14:03:38;17.10;;;14.48;;
44486;SDS011;30191;50.908;6.962;2023-12-14T14:06:06;16.75;;;13.82;;
44486;SDS011;30191;50.908;6.962;2023-12-14T14:08:32;16.15;;;13.60;;
44486;SDS011;30191;50.908;6.962;2023-12-14T14:10:58;21.00;;;13.50;;
44486;SDS011;30191;50.908;6.962;2023-12-14T14:13:25;17.95;;;14.05;;
44486;SDS011;30191;50.908;6.962;2023-12-14T14:15:51;19.15;;;13.80;;
44486;SDS011;30191;50.908;6.962;2023-12-14T14:18:16;18.63;;;13.60;;
44486;SDS011;30191;50.908;6.962;2023-12-14T14:20:42;16.27;;;12.93;;
44486;SDS011;30191;50.908;6.962;2023-12-14T14:23:08;17.75;;;13.55;;